Time;durP1;ratioP1;P1;durP2;ratioP2;P2;SDS_P1;SDS_P2;PMS_P1;PMS_P2;Temp;Humidity;BMP_temperature;BMP_pressure;BME280_temperature;BME280_humidity;BME280_pressure;Samples;Min_cycle;Max_cycle;Signal;HPM_P1;HPM_P2
2023/06/14 00:00:15;;;;;;;3.53;1.45;;;24.30;43.20;;;;;;5072437;28;20153;-75
2023/06/14 00:02:41;;;;;;;4.10;1.60;;;24.20;43.10;;;;;;5073150;28;20055;-75
2023/06/14 00:05:07;;;;;;;5.57;1.90;;;24.30;43.20;;;;;;5072943;28;20045;-76
2023/06/14 00:07:43;;;;;;;4.05;1.50;;;24.20;43.10;;;;;;5072445;28;20051;-76
2023/06/14 00:10:10;;;;;;;6.03;1.90;;;24.20;43.10;;;;;;5073222;28;20036;-76
2023/06/14 00:12:36;;;;;;;3.95;1.77;;;24.20;43.10;;;;;;5071755;28;20071;-76
2023/06/14 00:15:02;;;;;;;4.50;1.65;;;24.20;43.10;;;;;;5072018;28;20396;-76
2023/06/14 00:17:31;;;;;;;4.95;1.92;;;24.20;43.10;;;;;;5082830;28;20048;-76
2023/06/14 00:19:57;;;;;;;4.13;2.00;;;24.20;43.10;;;;;;5066407;28;20500;-76
2023/06/14 00:22:28;;;;;;;8.20;1.73;;;24.20;43.10;;;;;;5064301;28;20056;-75
2023/06/14 00:24:53;;;;;;;4.68;1.88;;;24.20;43.10;;;;;;5072988;28;20048;-75
2023/06/14 00:27:19;;;;;;;4.53;1.83;;;24.20;43.10;;;;;;5071568;28;20057;-76
2023/06/14 00:29:45;;;;;;;5.55;1.73;;;24.20;43.10;;;;;;5072970;28;20125;-76
2023/06/14 00:32:10;;;;;;;5.32;1.88;;;24.20;43.20;;;;;;5072546;28;20134;-76
2023/06/14 00:34:36;;;;;;;6.50;1.83;;;24.20;43.10;;;;;;5072004;28;20072;-75
2023/06/14 00:37:01;;;;;;;4.10;1.60;;;24.20;43.10;;;;;;5072234;28;20044;-76
2023/06/14 00:39:27;;;;;;;4.38;1.88;;;24.20;43.10;;;;;;5072470;28;20044;-75
2023/06/14 00:41:53;;;;;;;4.78;1.98;;;24.20;43.10;;;;;;5071854;28;20094;-76
2023/06/14 00:44:18;;;;;;;3.63;1.30;;;24.10;43.10;;;;;;5081681;28;20039;-76
2023/06/14 00:46:47;;;;;;;5.85;2.17;;;24.20;43.20;;;;;;5092495;28;20102;-76
2023/06/14 00:49:14;;;;;;;6.75;1.75;;;24.10;43.10;;;;;;5075670;28;20036;-76
2023/06/14 00:51:41;;;;;;;3.72;1.75;;;24.20;43.20;;;;;;5071577;28;20036;-75
2023/06/14 00:54:06;;;;;;;4.20;2.00;;;24.10;43.10;;;;;;5070081;28;20098;-75
2023/06/14 00:56:32;;;;;;;5.30;1.60;;;24.10;43.20;;;;;;5070393;28;20037;-75
2023/06/14 00:58:58;;;;;;;4.80;1.98;;;24.10;43.20;;;;;;5072082;28;20032;-75
2023/06/14 01:01:23;;;;;;;4.93;2.05;;;24.10;43.20;;;;;;5072583;28;20048;-75
2023/06/14 01:03:50;;;;;;;4.10;1.77;;;24.10;43.20;;;;;;5071745;28;20090;-75
2023/06/14 01:06:44;;;;;;;3.33;1.50;;;24.10;43.30;;;;;;5071932;28;20578;-76
2023/06/14 01:09:27;;;;;;;5.57;1.95;;;24.10;43.30;;;;;;5071498;28;20043;-76
2023/06/14 01:12:12;;;;;;;4.32;1.67;;;24.10;43.30;;;;;;5071279;28;20559;-76
2023/06/14 01:14:38;;;;;;;3.35;1.65;;;24.10;43.40;;;;;;5050817;28;20048;-75
2023/06/14 01:17:04;;;;;;;3.45;1.38;;;24.10;43.40;;;;;;5049826;28;20381;-75
2023/06/14 01:19:31;;;;;;;5.47;1.80;;;24.00;43.40;;;;;;5068605;28;20032;-75
2023/06/14 01:21:57;;;;;;;2.72;1.38;;;24.10;43.50;;;;;;5072156;28;20058;-75
2023/06/14 01:24:28;;;;;;;2.97;1.80;;;24.00;43.40;;;;;;5070108;28;20033;-75
2023/06/14 01:26:55;;;;;;;2.83;1.60;;;24.00;43.40;;;;;;5072019;28;20444;-76
2023/06/14 01:29:22;;;;;;;3.67;1.63;;;24.00;43.40;;;;;;5069847;28;20087;-75
2023/06/14 01:31:47;;;;;;;5.95;1.50;;;24.00;43.40;;;;;;5053440;28;20098;-75
2023/06/14 01:34:13;;;;;;;5.03;1.67;;;24.00;43.50;;;;;;5053700;28;20052;-76
2023/06/14 01:36:40;;;;;;;5.63;1.85;;;24.00;43.50;;;;;;5072025;28;20477;-75
2023/06/14 01:39:05;;;;;;;4.55;1.40;;;24.00;43.50;;;;;;5071280;28;20074;-75
2023/06/14 01:41:31;;;;;;;3.97;1.77;;;24.00;43.50;;;;;;5082708;28;20079;-76
2023/06/14 01:43:57;;;;;;;4.43;1.50;;;24.00;43.60;;;;;;5080240;28;20040;-75
2023/06/14 01:46:22;;;;;;;4.65;1.60;;;24.00;43.70;;;;;;5053571;28;20044;-75
2023/06/14 01:48:48;;;;;;;3.35;1.55;;;24.00;43.60;;;;;;5054036;28;20492;-76
2023/06/14 01:51:14;;;;;;;2.40;1.10;;;24.00;43.60;;;;;;5070475;28;20410;-76
2023/06/14 01:53:40;;;;;;;4.93;1.83;;;24.00;43.70;;;;;;5071049;28;20463;-75
2023/06/14 01:56:06;;;;;;;3.22;1.40;;;24.00;43.80;;;;;;5071197;28;20076;-75
2023/06/14 01:58:32;;;;;;;5.80;1.65;;;24.00;43.80;;;;;;5071011;28;20039;-75
2023/06/14 02:01:00;;;;;;;4.47;1.88;;;24.00;43.80;;;;;;5075119;28;20037;-75
2023/06/14 02:03:26;;;;;;;2.95;1.50;;;23.90;43.80;;;;;;5075411;28;20119;-75
2023/06/14 02:05:51;;;;;;;4.35;1.67;;;24.00;43.80;;;;;;5074538;28;20178;-76
2023/06/14 02:08:17;;;;;;;4.15;1.60;;;23.90;43.80;;;;;;5078335;28;20055;-77
2023/06/14 02:10:43;;;;;;;6.55;1.70;;;23.90;43.80;;;;;;5094499;28;20058;-76
2023/06/14 02:13:09;;;;;;;3.20;1.70;;;23.90;43.80;;;;;;5092281;28;20129;-76
2023/06/14 02:15:35;;;;;;;5.22;1.58;;;23.90;43.90;;;;;;5088019;28;20047;-75
2023/06/14 02:18:04;;;;;;;4.57;1.48;;;23.90;43.90;;;;;;5094480;28;20489;-76
2023/06/14 02:20:30;;;;;;;5.40;1.80;;;23.90;44.00;;;;;;5074308;28;20433;-76
2023/06/14 02:22:55;;;;;;;5.07;1.38;;;23.80;43.90;;;;;;5075528;28;20098;-77
2023/06/14 02:25:21;;;;;;;5.78;1.52;;;23.90;44.00;;;;;;5074975;28;20373;-77
2023/06/14 02:27:46;;;;;;;5.00;1.60;;;23.90;44.10;;;;;;5073019;28;20106;-76
2023/06/14 02:30:12;;;;;;;4.68;1.58;;;23.90;44.10;;;;;;5074464;28;20071;-76
2023/06/14 02:32:38;;;;;;;4.57;1.60;;;23.90;44.10;;;;;;5074713;28;20120;-77
2023/06/14 02:35:04;;;;;;;4.55;1.50;;;23.90;44.20;;;;;;5073909;28;20115;-76
2023/06/14 02:37:30;;;;;;;3.17;1.65;;;23.80;44.10;;;;;;5074858;28;20040;-76
2023/06/14 02:39:56;;;;;;;8.45;1.85;;;23.80;44.20;;;;;;5073738;28;20048;-76
2023/06/14 02:42:21;;;;;;;2.90;1.40;;;23.80;44.20;;;;;;5083575;28;20052;-77
2023/06/14 02:44:50;;;;;;;4.75;1.80;;;23.80;44.30;;;;;;5084208;28;20434;-77
2023/06/14 02:47:17;;;;;;;5.80;1.95;;;23.80;44.30;;;;;;5094978;28;20098;-77
2023/06/14 02:49:43;;;;;;;4.43;1.83;;;23.80;44.30;;;;;;5081073;28;20040;-76
2023/06/14 02:52:08;;;;;;;2.63;1.35;;;23.80;44.40;;;;;;5074551;28;20127;-76
2023/06/14 02:54:34;;;;;;;4.43;1.92;;;23.80;44.50;;;;;;5074038;28;20041;-76
2023/06/14 02:57:00;;;;;;;3.88;1.60;;;23.80;44.40;;;;;;5074172;28;20094;-76
2023/06/14 02:59:26;;;;;;;4.78;1.88;;;23.80;44.40;;;;;;5073360;28;20456;-76
2023/06/14 03:01:51;;;;;;;3.70;1.80;;;23.80;44.50;;;;;;5073391;28;20423;-77
2023/06/14 03:04:17;;;;;;;3.40;1.48;;;23.80;44.50;;;;;;5074159;28;20041;-76
2023/06/14 03:06:44;;;;;;;5.38;1.65;;;23.70;44.50;;;;;;5074367;28;20145;-77
2023/06/14 03:09:09;;;;;;;3.83;1.83;;;23.70;44.60;;;;;;5073546;28;20112;-76
2023/06/14 03:11:35;;;;;;;3.88;1.60;;;23.70;44.60;;;;;;5074246;28;20119;-76
2023/06/14 03:14:03;;;;;;;5.50;1.83;;;23.70;44.60;;;;;;5074023;28;20053;-76
2023/06/14 03:16:29;;;;;;;2.75;1.50;;;23.70;44.60;;;;;;5073558;28;20076;-76
2023/06/14 03:18:55;;;;;;;4.22;1.60;;;23.70;44.60;;;;;;5074180;28;20056;-76
2023/06/14 03:21:21;;;;;;;5.05;1.60;;;23.70;44.60;;;;;;5073689;28;20049;-76
2023/06/14 03:23:47;;;;;;;4.47;1.60;;;23.70;44.70;;;;;;5076241;28;20522;-77
2023/06/14 03:26:13;;;;;;;3.97;1.40;;;23.70;44.70;;;;;;5081244;28;20048;-77
2023/06/14 03:28:40;;;;;;;3.35;1.80;;;23.70;44.80;;;;;;5073696;28;20048;-76
2023/06/14 03:31:06;;;;;;;4.68;1.63;;;23.70;44.80;;;;;;5072803;28;20055;-77
2023/06/14 03:33:31;;;;;;;5.28;1.48;;;23.70;44.80;;;;;;5074031;28;20044;-77
2023/06/14 03:35:57;;;;;;;4.90;1.55;;;23.70;44.90;;;;;;5073344;28;20476;-77
2023/06/14 03:38:22;;;;;;;6.47;1.50;;;23.70;44.90;;;;;;5073047;28;20127;-76
2023/06/14 03:40:48;;;;;;;3.30;1.60;;;23.70;45.00;;;;;;5073998;28;20032;-77
2023/06/14 03:43:14;;;;;;;4.78;1.95;;;23.60;45.00;;;;;;5072147;28;20040;-77
2023/06/14 03:45:40;;;;;;;5.80;1.48;;;23.60;45.00;;;;;;5072702;28;20037;-77
2023/06/14 03:48:06;;;;;;;7.95;1.60;;;23.60;45.00;;;;;;5085251;28;20048;-76
2023/06/14 03:50:32;;;;;;;5.70;1.60;;;23.60;45.00;;;;;;5092446;28;20040;-77
2023/06/14 03:52:58;;;;;;;5.32;1.58;;;23.60;45.10;;;;;;5093016;28;20043;-77
2023/06/14 03:55:25;;;;;;;5.78;1.60;;;23.60;45.10;;;;;;5090680;28;20075;-77
2023/06/14 03:57:51;;;;;;;5.57;1.83;;;23.60;45.20;;;;;;5073443;28;20052;-76
2023/06/14 04:00:17;;;;;;;3.47;1.67;;;23.60;45.20;;;;;;5071015;28;20048;-76
2023/06/14 04:02:44;;;;;;;4.28;1.60;;;23.60;45.20;;;;;;5070862;28;20079;-76
2023/06/14 04:05:09;;;;;;;3.70;1.40;;;23.60;45.30;;;;;;5071037;28;20076;-76
2023/06/14 04:07:39;;;;;;;3.15;1.40;;;23.60;45.30;;;;;;5072750;28;20075;-77
2023/06/14 04:10:06;;;;;;;4.53;1.98;;;23.60;45.30;;;;;;5072996;28;20052;-76
2023/06/14 04:12:32;;;;;;;3.58;1.63;;;23.60;45.40;;;;;;5072237;28;20128;-77
2023/06/14 04:14:57;;;;;;;4.00;1.67;;;23.60;45.50;;;;;;5072745;28;20084;-76
2023/06/14 04:17:23;;;;;;;3.55;1.60;;;23.60;45.50;;;;;;5072837;28;20079;-76
2023/06/14 04:19:48;;;;;;;5.15;1.75;;;23.60;45.50;;;;;;5071163;28;20103;-76
2023/06/14 04:22:14;;;;;;;3.72;1.70;;;23.60;45.60;;;;;;5072002;28;20052;-76
2023/06/14 04:24:42;;;;;;;4.47;1.70;;;23.60;45.60;;;;;;5072994;28;20062;-76
2023/06/14 04:27:07;;;;;;;4.93;2.05;;;23.60;45.70;;;;;;5071374;28;20396;-76
2023/06/14 04:29:33;;;;;;;4.18;1.90;;;23.60;45.70;;;;;;5073024;28;20044;-76
2023/06/14 04:31:59;;;;;;;3.30;1.45;;;23.50;45.70;;;;;;5072395;28;20040;-76
2023/06/14 04:34:32;;;;;;;5.43;1.65;;;23.50;45.70;;;;;;5072169;28;20064;-76
2023/06/14 04:36:59;;;;;;;7.57;1.83;;;23.60;45.80;;;;;;5072448;28;20041;-76
2023/06/14 04:39:25;;;;;;;4.30;1.50;;;23.50;45.80;;;;;;5072620;28;20052;-76
2023/06/14 04:41:52;;;;;;;3.80;1.83;;;23.50;45.80;;;;;;5071575;28;20059;-76
2023/06/14 04:44:19;;;;;;;2.90;1.50;;;23.50;45.90;;;;;;5072103;28;20044;-76
2023/06/14 04:46:48;;;;;;;2.50;1.42;;;23.50;45.90;;;;;;5072793;28;20051;-77
2023/06/14 04:49:17;;;;;;;5.15;1.92;;;23.50;45.90;;;;;;5071558;28;20032;-77
2023/06/14 04:51:43;;;;;;;3.53;1.63;;;23.50;45.90;;;;;;5072424;28;20047;-76
2023/06/14 04:54:14;;;;;;;5.00;1.77;;;23.50;45.90;;;;;;5071804;28;20032;-76
2023/06/14 04:56:43;;;;;;;2.55;1.48;;;23.50;46.00;;;;;;5072434;28;20051;-77
2023/06/14 04:59:11;;;;;;;3.20;1.55;;;23.50;46.10;;;;;;5072081;28;20060;-76
2023/06/14 05:01:37;;;;;;;3.80;1.88;;;23.50;46.10;;;;;;5071629;28;20048;-76
2023/06/14 05:04:03;;;;;;;2.97;1.52;;;23.50;46.10;;;;;;5072320;28;20040;-76
2023/06/14 05:06:28;;;;;;;3.83;1.83;;;23.50;46.10;;;;;;5072182;28;20044;-76
2023/06/14 05:08:54;;;;;;;5.30;1.80;;;23.50;46.20;;;;;;5071435;28;20095;-77
2023/06/14 05:11:20;;;;;;;2.78;1.58;;;23.50;46.20;;;;;;5072117;28;20071;-77
2023/06/14 05:13:46;;;;;;;4.57;1.52;;;23.50;47.00;;;;;;5070964;28;20083;-77
2023/06/14 05:16:12;;;;;;;2.70;1.33;;;23.50;46.30;;;;;;5069896;28;20088;-77
2023/06/14 05:18:38;;;;;;;3.35;1.40;;;23.50;46.30;;;;;;5071102;28;20488;-76
2023/06/14 05:21:05;;;;;;;4.22;1.60;;;23.60;46.40;;;;;;5071687;28;20032;-77
2023/06/14 05:23:31;;;;;;;3.57;1.57;;;23.60;46.40;;;;;;5071470;28;20049;-77
2023/06/14 05:25:56;;;;;;;3.28;1.63;;;23.60;46.50;;;;;;5072016;28;20431;-77
2023/06/14 05:28:22;;;;;;;5.28;2.05;;;23.60;46.50;;;;;;5071406;28;20059;-78
2023/06/14 05:30:48;;;;;;;3.58;1.70;;;23.60;46.50;;;;;;5070699;28;20102;-77
2023/06/14 05:33:13;;;;;;;5.55;1.75;;;23.60;46.50;;;;;;5072007;28;20044;-77
2023/06/14 05:35:39;;;;;;;6.10;1.90;;;23.60;46.60;;;;;;5075709;28;20068;-77
2023/06/14 05:38:05;;;;;;;5.05;1.45;;;23.60;46.60;;;;;;5075206;28;20044;-77
2023/06/14 05:40:31;;;;;;;3.95;1.80;;;23.60;46.60;;;;;;5076194;28;20044;-76
2023/06/14 05:42:56;;;;;;;3.80;1.70;;;23.50;46.60;;;;;;5075961;28;20541;-76
2023/06/14 05:45:22;;;;;;;2.88;1.77;;;23.50;46.60;;;;;;5075067;28;20051;-74
2023/06/14 05:47:47;;;;;;;3.88;1.90;;;23.60;46.60;;;;;;5075893;28;20036;-74
2023/06/14 05:50:13;;;;;;;3.78;2.00;;;23.50;46.50;;;;;;5075438;28;20127;-75
2023/06/14 05:52:38;;;;;;;5.43;2.00;;;23.60;46.50;;;;;;5074588;28;20039;-73
2023/06/14 05:55:05;;;;;;;4.82;2.00;;;23.50;46.40;;;;;;5074904;28;20052;-74
2023/06/14 05:57:31;;;;;;;4.20;1.90;;;23.50;46.40;;;;;;5074735;28;20048;-74
2023/06/14 05:59:57;;;;;;;5.32;2.17;;;23.50;46.40;;;;;;5075397;28;20124;-76
2023/06/14 06:02:22;;;;;;;6.57;2.10;;;23.50;46.50;;;;;;5075269;28;20110;-75
2023/06/14 06:04:48;;;;;;;3.20;1.70;;;23.50;46.50;;;;;;5074785;28;20040;-76
2023/06/14 06:07:13;;;;;;;4.65;1.90;;;23.50;46.50;;;;;;5082086;28;20048;-76
2023/06/14 06:09:39;;;;;;;6.07;2.40;;;23.40;46.50;;;;;;5087783;28;20051;-76
2023/06/14 06:12:06;;;;;;;3.25;1.73;;;23.40;46.50;;;;;;5074279;28;20435;-75
2023/06/14 06:14:32;;;;;;;3.05;1.85;;;23.40;46.50;;;;;;5075503;28;20045;-75
2023/06/14 06:16:57;;;;;;;5.78;1.98;;;23.40;46.50;;;;;;5069473;28;20041;-76
2023/06/14 06:19:23;;;;;;;4.35;2.00;;;23.40;46.00;;;;;;5073691;28;20053;-75
2023/06/14 06:21:49;;;;;;;5.80;2.53;;;23.30;45.80;;;;;;5064971;28;20123;-85
2023/06/14 06:24:15;;;;;;;5.22;2.13;;;23.20;45.80;;;;;;5073480;28;20040;-77
2023/06/14 06:26:40;;;;;;;5.57;2.20;;;23.10;45.80;;;;;;5074423;28;20045;-74
2023/06/14 06:29:06;;;;;;;5.57;2.40;;;23.00;46.00;;;;;;5073534;28;20419;-77
2023/06/14 06:31:31;;;;;;;6.95;2.30;;;22.90;46.00;;;;;;5074034;28;20044;-79
2023/06/14 06:33:57;;;;;;;4.30;1.75;;;22.90;46.10;;;;;;5073361;28;20051;-77
2023/06/14 06:36:22;;;;;;;6.57;2.20;;;22.80;46.00;;;;;;5073673;28;20043;-76
2023/06/14 06:38:48;;;;;;;4.30;1.92;;;22.70;46.00;;;;;;5074097;28;20527;-79
2023/06/14 06:41:14;;;;;;;5.63;2.10;;;22.70;46.20;;;;;;5072898;28;20403;-82
2023/06/14 06:43:40;;;;;;;5.10;2.03;;;22.70;46.40;;;;;;5074082;28;20032;-76
2023/06/14 06:46:05;;;;;;;5.88;2.00;;;22.70;46.40;;;;;;5072494;28;20118;-72
2023/06/14 06:48:31;;;;;;;6.03;2.33;;;22.60;46.30;;;;;;5072454;28;20064;-75
2023/06/14 06:50:56;;;;;;;5.00;1.80;;;22.60;46.40;;;;;;5070777;28;20044;-82
2023/06/14 06:53:22;;;;;;;4.50;2.10;;;22.50;46.20;;;;;;5074523;28;20040;-81
2023/06/14 06:55:48;;;;;;;4.95;1.90;;;22.50;46.20;;;;;;5075476;28;20425;-76
2023/06/14 06:58:13;;;;;;;5.88;1.88;;;22.50;46.20;;;;;;5068986;28;20055;-77
2023/06/14 07:00:39;;;;;;;5.35;2.00;;;22.50;46.20;;;;;;5071292;28;20048;-77
2023/06/14 07:03:05;;;;;;;6.00;2.00;;;22.50;46.20;;;;;;5054695;28;20065;-75
2023/06/14 07:05:31;;;;;;;4.05;1.85;;;22.60;46.40;;;;;;5052404;28;20407;-76
2023/06/14 07:07:56;;;;;;;7.35;2.17;;;22.60;46.30;;;;;;5052821;28;20029;-72
2023/06/14 07:10:24;;;;;;;4.28;1.70;;;22.60;46.30;;;;;;5053182;28;20041;-78
2023/06/14 07:12:50;;;;;;;2.60;1.53;;;22.60;46.20;;;;;;5053269;28;20496;-77
2023/06/14 07:15:16;;;;;;;5.78;1.77;;;22.50;46.10;;;;;;5052077;28;20041;-77
2023/06/14 07:17:42;;;;;;;6.32;2.00;;;22.60;46.20;;;;;;5068824;28;20548;-77
2023/06/14 07:20:10;;;;;;;6.28;2.30;;;22.50;46.20;;;;;;5066940;28;20660;-67
2023/06/14 07:22:37;;;;;;;8.30;1.90;;;22.50;46.30;;;;;;5060314;28;20049;-74
2023/06/14 07:25:03;;;;;;;6.93;2.08;;;22.50;46.20;;;;;;5066315;28;20037;-72
2023/06/14 07:27:29;;;;;;;11.23;2.47;;;22.60;46.20;;;;;;5030652;28;1081737;-75
2023/06/14 07:29:54;;;;;;;3.78;1.75;;;22.50;46.20;;;;;;5053597;28;20049;-76
2023/06/14 07:32:20;;;;;;;4.60;1.42;;;22.50;46.20;;;;;;5061170;28;20040;-74
2023/06/14 07:34:46;;;;;;;3.40;1.55;;;22.60;46.30;;;;;;5074149;28;20040;-75
2023/06/14 07:37:12;;;;;;;3.53;1.67;;;22.50;46.20;;;;;;5072728;28;20155;-75
2023/06/14 07:39:37;;;;;;;5.45;1.73;;;22.60;46.00;;;;;;5073720;28;20121;-81
2023/06/14 07:42:03;;;;;;;3.35;1.73;;;22.60;45.70;;;;;;5073757;28;20120;-77
2023/06/14 07:44:31;;;;;;;6.90;1.63;;;22.60;45.50;;;;;;5071825;28;20068;-78
2023/06/14 07:46:58;;;;;;;5.90;2.05;;;22.60;45.20;;;;;;5072554;28;20115;-77
2023/06/14 07:49:23;;;;;;;2.47;1.58;;;22.60;45.00;;;;;;5073854;28;20044;-78
2023/06/14 07:51:50;;;;;;;4.90;1.70;;;22.60;44.90;;;;;;5072849;28;20044;-74
2023/06/14 07:54:16;;;;;;;3.70;1.50;;;22.60;44.70;;;;;;5073577;28;20577;-69
2023/06/14 07:56:42;;;;;;;4.18;1.80;;;22.60;44.60;;;;;;5072036;28;20523;-70
2023/06/14 07:59:07;;;;;;;3.95;1.50;;;22.60;44.70;;;;;;5071224;28;20076;-69
2023/06/14 08:01:33;;;;;;;3.70;1.60;;;22.70;44.80;;;;;;5073474;28;20048;-70
2023/06/14 08:03:59;;;;;;;3.28;1.60;;;22.80;45.00;;;;;;5073209;28;20120;-69
2023/06/14 08:06:25;;;;;;;3.72;1.35;;;22.80;45.00;;;;;;5071423;28;20040;-69
2023/06/14 08:08:50;;;;;;;2.80;1.80;;;22.90;44.90;;;;;;5072068;28;20043;-69
2023/06/14 08:11:16;;;;;;;3.75;1.40;;;23.00;44.90;;;;;;5072471;28;20046;-69
2023/06/14 08:13:41;;;;;;;3.60;1.50;;;23.00;44.80;;;;;;5073629;28;20132;-69
2023/06/14 08:16:07;;;;;;;2.88;1.40;;;23.00;44.80;;;;;;5072540;28;20408;-68
2023/06/14 08:18:32;;;;;;;2.53;1.35;;;23.10;44.90;;;;;;5054785;28;20048;-69
2023/06/14 08:20:58;;;;;;;5.75;1.60;;;23.10;44.90;;;;;;5072906;28;20044;-69
2023/06/14 08:23:23;;;;;;;3.58;1.42;;;23.20;44.90;;;;;;5073266;28;20033;-69
2023/06/14 08:25:49;;;;;;;2.47;1.13;;;23.20;44.90;;;;;;5071383;28;20531;-69
2023/06/14 08:28:15;;;;;;;3.08;1.30;;;23.20;44.90;;;;;;5072929;28;20059;-70
2023/06/14 08:30:42;;;;;;;3.63;1.40;;;23.30;44.90;;;;;;5072763;28;20044;-69
2023/06/14 08:33:08;;;;;;;2.50;1.55;;;23.30;45.00;;;;;;5070704;28;20393;-69
2023/06/14 08:35:35;;;;;;;3.03;1.40;;;23.30;45.60;;;;;;5073191;28;20051;-69
2023/06/14 08:38:01;;;;;;;3.53;1.50;;;23.30;44.90;;;;;;5072663;28;20132;-69
2023/06/14 08:40:30;;;;;;;4.00;1.20;;;23.40;45.00;;;;;;5072551;28;20119;-69
2023/06/14 08:42:55;;;;;;;3.40;1.40;;;23.40;45.00;;;;;;5072969;28;20549;-69
2023/06/14 08:45:23;;;;;;;2.38;1.20;;;23.40;45.10;;;;;;5072650;28;20036;-69
2023/06/14 08:47:51;;;;;;;3.22;1.20;;;23.40;45.10;;;;;;5072317;28;20106;-69
2023/06/14 08:50:29;;;;;;;1.88;1.17;;;23.40;45.20;;;;;;5072771;28;20460;-69
2023/06/14 08:52:57;;;;;;;4.53;1.58;;;23.50;45.30;;;;;;5072763;28;20381;-69
2023/06/14 08:55:25;;;;;;;2.45;1.10;;;23.50;45.30;;;;;;5071931;28;20041;-70
2023/06/14 08:57:51;;;;;;;4.50;1.50;;;23.50;45.30;;;;;;5066242;28;20045;-70
2023/06/14 09:00:17;;;;;;;3.15;1.30;;;23.50;45.40;;;;;;5034197;28;20041;-69
2023/06/14 09:02:43;;;;;;;3.17;1.58;;;23.50;45.40;;;;;;5049950;28;20044;-69
2023/06/14 09:05:17;;;;;;;2.15;1.13;;;23.60;45.60;;;;;;5072640;28;20047;-70
2023/06/14 09:07:44;;;;;;;2.20;1.30;;;23.60;45.60;;;;;;5070857;28;20056;-69
2023/06/14 09:10:13;;;;;;;3.63;1.58;;;23.60;45.70;;;;;;5072113;28;20440;-69
2023/06/14 09:12:42;;;;;;;2.50;1.30;;;23.60;45.70;;;;;;5072807;28;20143;-69
2023/06/14 09:15:08;;;;;;;2.65;1.50;;;23.60;45.70;;;;;;5069978;28;20051;-70
2023/06/14 09:17:37;;;;;;;1.77;1.20;;;23.60;45.80;;;;;;5057019;28;20580;-70
2023/06/14 09:20:08;;;;;;;3.20;1.27;;;23.60;45.90;;;;;;5052430;28;20082;-69
2023/06/14 09:22:34;;;;;;;2.85;1.30;;;23.70;46.00;;;;;;5051773;28;20143;-69
2023/06/14 09:25:00;;;;;;;2.10;1.30;;;23.70;46.00;;;;;;5051443;28;20386;-69
2023/06/14 09:27:26;;;;;;;2.47;1.10;;;23.70;46.10;;;;;;5052475;28;20507;-69
2023/06/14 09:29:52;;;;;;;2.28;1.17;;;23.70;46.10;;;;;;5050114;28;20092;-69
2023/06/14 09:32:18;;;;;;;2.33;1.33;;;23.70;46.20;;;;;;5050980;28;20045;-69
2023/06/14 09:34:44;;;;;;;2.60;1.33;;;23.70;46.20;;;;;;5051010;28;20045;-69
2023/06/14 09:37:09;;;;;;;3.17;1.23;;;23.70;46.20;;;;;;5033570;28;20049;-69
2023/06/14 09:39:35;;;;;;;2.15;1.25;;;23.70;46.20;;;;;;5050999;28;20040;-69
2023/06/14 09:42:00;;;;;;;2.75;1.23;;;23.70;46.30;;;;;;5050547;28;20075;-69
2023/06/14 09:44:29;;;;;;;1.92;1.10;;;23.70;46.30;;;;;;5049961;28;20128;-69
2023/06/14 09:46:55;;;;;;;2.85;1.23;;;23.70;46.40;;;;;;5059945;28;20044;-69
2023/06/14 09:49:21;;;;;;;1.92;1.10;;;23.70;46.40;;;;;;5070415;28;20068;-69
2023/06/14 09:51:49;;;;;;;2.10;1.33;;;23.70;46.50;;;;;;5085934;28;20129;-68
2023/06/14 09:54:15;;;;;;;;;;;23.80;46.60;;;;;;5034172;28;20070;-69
2023/06/14 09:56:42;;;;;;;1.88;1.25;;;23.70;46.60;;;;;;5050119;28;20387;-69
2023/06/14 09:59:09;;;;;;;2.10;1.02;;;23.80;46.60;;;;;;5034109;28;20049;-69
2023/06/14 10:01:35;;;;;;;1.88;0.80;;;23.80;46.60;;;;;;5040635;28;20045;-68
2023/06/14 10:04:05;;;;;;;2.67;1.20;;;23.80;46.60;;;;;;5086708;28;20105;-69
2023/06/14 10:06:30;;;;;;;3.08;1.15;;;23.80;46.60;;;;;;5070755;28;20484;-70
2023/06/14 10:09:00;;;;;;;2.10;1.00;;;23.80;46.70;;;;;;5070599;28;20048;-73
2023/06/14 10:11:26;;;;;;;4.03;1.13;;;23.80;47.40;;;;;;5069697;28;20052;-67
2023/06/14 10:13:51;;;;;;;3.00;1.40;;;23.80;46.60;;;;;;5072040;28;20041;-68
2023/06/14 10:16:21;;;;;;;3.03;1.10;;;23.80;46.60;;;;;;5083636;28;20045;-68
2023/06/14 10:19:05;;;;;;;2.55;1.17;;;23.80;46.60;;;;;;5050119;28;20041;-68
2023/06/14 10:22:02;;;;;;;3.15;1.00;;;23.80;46.60;;;;;;5053298;28;20076;-67
2023/06/14 10:24:41;;;;;;;3.47;1.02;;;23.80;46.60;;;;;;5054456;28;20400;-66
2023/06/14 10:27:10;;;;;;;2.00;1.10;;;23.90;46.70;;;;;;5071676;28;20040;-67
2023/06/14 10:30:01;;;;;;;4.15;1.10;;;23.80;46.70;;;;;;5074830;28;20044;-67
2023/06/14 10:32:30;;;;;;;3.92;1.40;;;23.80;46.90;;;;;;5071787;28;20068;-67
2023/06/14 10:34:58;;;;;;;2.80;1.10;;;23.90;47.80;;;;;;5075160;28;20033;-67
2023/06/14 10:37:24;;;;;;;4.03;1.20;;;23.90;47.20;;;;;;5073743;28;20055;-68
2023/06/14 10:39:50;;;;;;;4.53;1.27;;;23.90;47.30;;;;;;5056230;28;20048;-69
2023/06/14 10:42:15;;;;;;;2.28;1.20;;;23.90;47.30;;;;;;5074996;28;20101;-68
2023/06/14 10:44:42;;;;;;;3.25;1.42;;;23.90;47.40;;;;;;5075158;28;20391;-68
2023/06/14 10:47:11;;;;;;;4.10;1.15;;;23.90;47.40;;;;;;5072883;28;20049;-68
2023/06/14 10:49:41;;;;;;;;;;;23.90;47.50;;;;;;5074056;28;20041;-67
2023/06/14 10:52:19;;;;;;;1.92;1.20;;;23.90;47.50;;;;;;5073606;28;19921;-68
2023/06/14 10:55:09;;;;;;;2.30;1.20;;;23.90;47.50;;;;;;5073180;28;20045;-67
2023/06/14 10:57:39;;;;;;;3.05;1.48;;;23.90;47.50;;;;;;5075115;28;20140;-67
2023/06/14 11:00:12;;;;;;;3.70;1.10;;;23.90;47.50;;;;;;5073873;28;20044;-68
2023/06/14 11:03:08;;;;;;;2.83;1.23;;;23.90;47.60;;;;;;5074672;28;20040;-68
2023/06/14 11:05:53;;;;;;;2.80;0.90;;;24.00;47.70;;;;;;5074786;28;20135;-68
2023/06/14 11:08:34;;;;;;;1.98;1.10;;;23.90;47.70;;;;;;5073947;28;20049;-68
2023/06/14 11:11:00;;;;;;;2.42;1.10;;;23.90;47.70;;;;;;5073295;28;20055;-68
2023/06/14 11:13:25;;;;;;;3.88;1.10;;;23.90;47.60;;;;;;5072904;28;20044;-68
2023/06/14 11:15:53;;;;;;;3.85;1.50;;;23.90;47.70;;;;;;5073943;28;20377;-68
2023/06/14 11:18:19;;;;;;;2.28;0.98;;;24.00;48.00;;;;;;5074074;28;20052;-68
2023/06/14 11:20:46;;;;;;;2.60;1.25;;;24.00;48.00;;;;;;5074658;28;20499;-68
2023/06/14 11:23:11;;;;;;;3.45;1.00;;;24.00;48.00;;;;;;5073833;28;20178;-68
2023/06/14 11:25:37;;;;;;;2.15;1.20;;;24.00;48.00;;;;;;5074230;28;20653;-67
2023/06/14 11:28:03;;;;;;;4.80;1.23;;;24.00;48.00;;;;;;5072946;28;20064;-72
2023/06/14 11:30:28;;;;;;;4.97;1.30;;;24.00;48.00;;;;;;5072857;28;20052;-68
2023/06/14 11:32:54;;;;;;;2.72;1.15;;;24.00;47.90;;;;;;5072288;28;20036;-67
2023/06/14 11:35:23;;;;;;;4.43;1.50;;;24.00;48.20;;;;;;5071153;28;20176;-67
2023/06/14 11:37:53;;;;;;;5.45;1.40;;;24.10;48.40;;;;;;5066802;28;20400;-65
2023/06/14 11:40:19;;;;;;;5.57;1.30;;;24.10;48.50;;;;;;5054077;28;20382;-66
2023/06/14 11:42:44;;;;;;;3.85;1.20;;;24.10;48.60;;;;;;5069246;28;20051;-66
2023/06/14 11:45:11;;;;;;;4.55;1.60;;;24.10;48.70;;;;;;5073248;28;20044;-66
2023/06/14 11:47:40;;;;;;;3.80;1.20;;;24.10;48.70;;;;;;5073396;28;20392;-65
2023/06/14 11:50:08;;;;;;;5.03;1.00;;;24.10;48.80;;;;;;5071160;28;20143;-66
2023/06/14 11:52:33;;;;;;;;;;;24.10;48.90;;;;;;5072279;28;20045;-66
2023/06/14 11:54:59;;;;;;;3.55;1.20;;;24.10;49.00;;;;;;5071990;28;19943;-66
2023/06/14 11:57:25;;;;;;;4.35;1.15;;;24.10;48.90;;;;;;5071131;28;20048;-66
2023/06/14 11:59:51;;;;;;;3.03;1.20;;;24.10;49.00;;;;;;5073288;28;20047;-66
2023/06/14 12:02:17;;;;;;;4.40;1.48;;;24.10;49.10;;;;;;5072958;28;20055;-66
2023/06/14 12:04:43;;;;;;;5.38;1.17;;;24.20;49.20;;;;;;5072679;28;20048;-65
2023/06/14 12:07:20;;;;;;;4.22;1.20;;;24.20;49.30;;;;;;5072935;28;20048;-65
2023/06/14 12:09:54;;;;;;;5.70;1.30;;;24.20;49.40;;;;;;5073465;28;20597;-65
2023/06/14 12:12:25;;;;;;;3.53;1.33;;;24.20;49.50;;;;;;5071044;28;20076;-66
2023/06/14 12:14:51;;;;;;;4.65;1.27;;;24.20;49.50;;;;;;5071928;28;20036;-65
2023/06/14 12:17:17;;;;;;;4.15;1.30;;;24.20;49.50;;;;;;5070608;28;20138;-66
2023/06/14 12:19:43;;;;;;;4.30;1.40;;;24.20;49.50;;;;;;5072828;28;20484;-66
2023/06/14 12:22:13;;;;;;;3.35;1.05;;;24.20;49.60;;;;;;5072325;28;20098;-66
2023/06/14 12:24:39;;;;;;;4.22;1.05;;;24.20;49.60;;;;;;5071213;28;20052;-67
2023/06/14 12:27:05;;;;;;;5.20;1.05;;;24.20;49.60;;;;;;5071178;28;20071;-67
2023/06/14 12:29:31;;;;;;;4.30;1.38;;;24.20;49.70;;;;;;5071466;28;20488;-67
2023/06/14 12:31:56;;;;;;;5.55;1.35;;;24.20;49.70;;;;;;5070558;28;20081;-66
2023/06/14 12:34:26;;;;;;;4.38;1.73;;;24.20;49.60;;;;;;5087467;28;20184;-67
2023/06/14 12:36:53;;;;;;;2.80;1.10;;;24.30;49.80;;;;;;5085394;28;20044;-67
2023/06/14 12:39:18;;;;;;;4.82;1.10;;;24.30;49.80;;;;;;5070303;28;20045;-68
2023/06/14 12:41:44;;;;;;;4.28;1.20;;;24.30;49.60;;;;;;5072532;28;20369;-68
2023/06/14 12:44:11;;;;;;;1.90;1.08;;;24.30;49.60;;;;;;5071715;28;20093;-68
2023/06/14 12:46:36;;;;;;;3.70;1.27;;;24.30;49.60;;;;;;5071585;28;20556;-67